createdAt,value
2018-04-28T00:00:25.207Z,14.40
2018-04-28T00:02:52.598Z,14.39
2018-04-28T00:05:20.015Z,14.39
2018-04-28T00:07:47.407Z,14.31
2018-04-28T00:10:14.823Z,14.29
2018-04-28T00:12:42.202Z,14.21
2018-04-28T00:15:09.647Z,14.18
2018-04-28T00:17:46.402Z,14.10
2018-04-28T00:20:14.531Z,14.02
2018-04-28T00:22:48.509Z,13.98
2018-04-28T00:25:16.678Z,13.87
2018-04-28T00:27:54.712Z,13.89
2018-04-28T00:30:41.589Z,13.84
2018-04-28T00:33:15.604Z,13.81
2018-04-28T00:35:42.982Z,13.74
2018-04-28T00:38:10.375Z,13.75
2018-04-28T00:40:43.498Z,13.77
2018-04-28T00:43:12.419Z,13.67
2018-04-28T00:45:57.455Z,13.66
2018-04-28T00:51:38.303Z,13.69
2018-04-28T00:57:39.223Z,13.71
2018-04-28T01:00:16.992Z,13.75
2018-04-28T01:02:44.390Z,13.80
2018-04-28T01:05:18.203Z,13.80
2018-04-28T01:07:46.190Z,13.81
2018-04-28T01:10:15.189Z,13.76
2018-04-28T01:12:44.382Z,13.76
2018-04-28T01:15:14.688Z,13.79
2018-04-28T01:21:08.016Z,13.82
2018-04-28T01:23:51.100Z,13.75
2018-04-28T01:29:14.002Z,13.80
2018-04-28T01:31:42.571Z,13.75
2018-04-28T01:34:10.731Z,13.77
2018-04-28T01:36:44.606Z,13.81
2018-04-28T01:45:37.735Z,13.73
2018-04-28T01:48:09.668Z,13.66
2018-04-28T01:50:46.971Z,13.58
2018-04-28T01:53:14.376Z,13.55
2018-04-28T01:58:38.212Z,13.46
2018-04-28T02:01:17.571Z,13.43
2018-04-28T02:04:08.313Z,13.37
2018-04-28T02:09:42.310Z,13.22
2018-04-28T02:12:12.514Z,13.17
2018-04-28T02:14:47.746Z,13.15
2018-04-28T02:17:15.144Z,13.11
2018-04-28T02:19:48.451Z,13.06
2018-04-28T02:22:37.642Z,13.01
2018-04-28T02:25:16.734Z,12.98
2018-04-28T02:31:02.083Z,12.95
2018-04-28T02:33:30.263Z,12.97
2018-04-28T02:38:59.023Z,12.94
2018-04-28T02:41:36.051Z,12.89
2018-04-28T02:44:05.158Z,12.89
2018-04-28T02:49:31.522Z,12.81
2018-04-28T02:55:10.108Z,12.78
2018-04-28T02:57:57.023Z,12.84
2018-04-28T03:00:39.834Z,12.88
2018-04-28T03:06:11.111Z,12.92
2018-04-28T03:08:40.291Z,12.96
2018-04-28T03:11:19.524Z,12.98
2018-04-28T03:13:50.849Z,12.97
2018-04-28T03:16:30.985Z,12.90
2018-04-28T03:19:00.690Z,12.87
2018-04-28T03:21:28.071Z,12.83
2018-04-28T03:24:09.158Z,12.77
2018-04-28T03:26:40.338Z,12.72
2018-04-28T03:29:15.795Z,12.58
2018-04-28T03:31:44.867Z,12.50
2018-04-28T03:34:26.117Z,12.37
2018-04-28T03:37:05.203Z,12.35
2018-04-28T03:39:45.162Z,12.35
2018-04-28T03:42:15.524Z,12.34
2018-04-28T03:44:56.570Z,12.36
2018-04-28T03:50:35.232Z,12.31
2018-04-28T03:53:14.468Z,12.26
2018-04-28T03:55:41.867Z,12.28
2018-04-28T03:58:21.086Z,12.28
2018-04-28T04:01:00.379Z,12.22
2018-04-28T04:03:27.755Z,12.20
2018-04-28T04:09:02.211Z,12.14
2018-04-28T04:11:41.303Z,12.15
2018-04-28T04:14:20.598Z,12.14
2018-04-28T04:19:56.818Z,12.11
2018-04-28T04:22:32.863Z,12.10
2018-04-28T04:25:15.743Z,12.10
2018-04-28T04:27:47.567Z,12.08
2018-04-28T04:30:36.523Z,12.08
2018-04-28T04:33:10.655Z,12.06
2018-04-28T04:38:50.450Z,12.06
2018-04-28T04:41:24.282Z,12.16
2018-04-28T04:44:07.119Z,12.24
2018-04-28T04:50:06.163Z,12.48
2018-04-28T04:55:29.640Z,12.71
2018-04-28T04:58:16.382Z,12.77
2018-04-28T05:03:42.926Z,12.80
2018-04-28T05:06:22.146Z,12.81
2018-04-28T05:09:00.151Z,12.84
2018-04-28T05:11:36.071Z,12.89
2018-04-28T05:14:10.044Z,12.94
2018-04-28T05:16:43.755Z,12.92
2018-04-28T05:19:18.891Z,12.95
2018-04-28T05:21:55.922Z,12.93
2018-04-28T05:24:28.907Z,12.99
2018-04-28T05:30:05.706Z,13.19
2018-04-28T05:32:43.342Z,13.34
2018-04-28T05:35:21.326Z,13.46
2018-04-28T05:38:00.622Z,13.63
2018-04-28T05:40:53.614Z,13.74
2018-04-28T05:43:28.819Z,13.81
2018-04-28T05:46:01.962Z,13.90
2018-04-28T05:48:41.227Z,13.95
2018-04-28T05:54:23.902Z,14.04
2018-04-28T06:00:15.602Z,14.05
2018-04-28T06:02:48.814Z,14.07
2018-04-28T06:05:21.550Z,14.13
2018-04-28T06:07:59.687Z,14.18
2018-04-28T06:10:30.531Z,14.16
2018-04-28T06:13:07.651Z,14.35
2018-04-28T06:19:02.160Z,14.50
2018-04-28T06:21:29.535Z,14.54
2018-04-28T06:23:56.914Z,14.58
2018-04-28T06:26:24.294Z,14.55
2018-04-28T06:28:51.691Z,14.51
2018-04-28T06:31:19.066Z,14.50
2018-04-28T06:33:46.783Z,14.58
2018-04-28T06:36:14.158Z,14.56
2018-04-28T06:38:41.539Z,14.56
2018-04-28T06:41:08.936Z,14.81
2018-04-28T06:43:36.302Z,14.90
2018-04-28T06:46:03.690Z,14.97
2018-04-28T06:48:31.081Z,15.08
2018-04-28T06:50:58.511Z,15.14
2018-04-28T06:53:25.839Z,15.25
2018-04-28T06:55:53.220Z,15.35
2018-04-28T06:58:20.607Z,15.43
2018-04-28T07:00:47.991Z,15.52
2018-04-28T07:03:15.366Z,15.60
2018-04-28T07:05:42.759Z,15.63
2018-04-28T07:08:10.143Z,15.64
2018-04-28T07:10:37.521Z,15.67
2018-04-28T07:13:04.903Z,15.65
2018-04-28T07:15:32.285Z,15.54
2018-04-28T07:17:59.663Z,15.58
2018-04-28T07:20:27.053Z,15.70
2018-04-28T07:22:54.435Z,15.54
2018-04-28T07:25:21.810Z,15.56
2018-04-28T07:27:49.198Z,15.64
2018-04-28T07:30:16.691Z,15.67
2018-04-28T07:32:44.059Z,15.78
2018-04-28T07:35:11.445Z,15.83
2018-04-28T07:37:38.843Z,15.99
2018-04-28T07:40:06.218Z,16.04
2018-04-28T07:42:33.599Z,16.14
2018-04-28T07:45:00.982Z,16.10
2018-04-28T07:47:28.395Z,16.25
2018-04-28T07:49:55.750Z,16.26
2018-04-28T07:52:23.122Z,16.34
2018-04-28T07:54:50.503Z,16.46
2018-04-28T07:57:17.934Z,16.50
2018-04-28T07:59:45.321Z,16.58
2018-04-28T08:02:12.694Z,16.71
2018-04-28T08:04:40.082Z,16.85
2018-04-28T08:07:07.554Z,16.91
2018-04-28T08:09:34.844Z,17.06
2018-04-28T08:12:02.226Z,17.05
2018-04-28T08:14:29.610Z,17.22
2018-04-28T08:16:57.003Z,17.29
2018-04-28T08:19:24.387Z,17.27
2018-04-28T08:21:51.774Z,17.32
2018-04-28T08:24:19.158Z,17.36
2018-04-28T08:26:46.550Z,17.36
2018-04-28T08:29:13.934Z,17.35
2018-04-28T08:31:41.307Z,17.50
2018-04-28T08:34:08.686Z,17.54
2018-04-28T08:36:36.094Z,17.48
2018-04-28T08:39:03.470Z,17.62
2018-04-28T08:41:30.855Z,17.61
2018-04-28T08:43:58.238Z,17.80
2018-04-28T08:46:25.622Z,17.91
2018-04-28T08:48:53.002Z,17.71
2018-04-28T08:51:20.395Z,18.01
2018-04-28T08:53:47.791Z,18.21
2018-04-28T08:56:15.162Z,18.29
2018-04-28T08:58:42.550Z,18.39
2018-04-28T09:01:09.927Z,18.42
2018-04-28T09:03:37.331Z,18.53
2018-04-28T09:06:04.698Z,18.67
2018-04-28T09:08:32.082Z,18.66
2018-04-28T09:10:59.463Z,18.75
2018-04-28T09:13:26.847Z,18.82
2018-04-28T09:15:54.237Z,18.85
2018-04-28T09:18:21.619Z,18.89
2018-04-28T09:20:49.003Z,18.94
2018-04-28T09:23:16.387Z,18.89
2018-04-28T09:25:43.891Z,18.91
2018-04-28T09:28:11.288Z,18.93
2018-04-28T09:30:38.670Z,18.94
2018-04-28T09:33:06.142Z,19.05
2018-04-28T09:35:33.431Z,19.49
2018-04-28T09:38:00.866Z,19.87
2018-04-28T09:40:28.278Z,20.44
2018-04-28T09:42:55.730Z,20.81
2018-04-28T09:45:23.190Z,20.55
2018-04-28T09:47:50.583Z,20.61
2018-04-28T09:50:17.958Z,20.87
2018-04-28T09:52:45.343Z,21.37
2018-04-28T09:55:12.723Z,21.61
2018-04-28T09:57:40.112Z,21.23
2018-04-28T10:00:23.250Z,20.50
2018-04-28T10:02:50.635Z,20.02
2018-04-28T10:05:18.011Z,19.38
2018-04-28T10:07:45.394Z,19.57
2018-04-28T10:10:12.771Z,19.24
2018-04-28T10:12:40.183Z,19.33
2018-04-28T10:15:07.523Z,19.85
2018-04-28T10:17:34.895Z,19.94
2018-04-28T10:20:02.323Z,20.14
2018-04-28T10:22:29.702Z,20.12
2018-04-28T10:24:57.059Z,20.27
2018-04-28T10:27:24.439Z,21.11
2018-04-28T10:29:51.811Z,21.00
2018-04-28T10:32:19.190Z,20.59
2018-04-28T10:34:46.575Z,20.00
2018-04-28T10:37:13.979Z,20.05
2018-04-28T10:39:41.382Z,19.74
2018-04-28T10:42:08.762Z,19.47
2018-04-28T10:44:36.135Z,19.48
2018-04-28T10:47:03.539Z,19.48
2018-04-28T10:49:30.937Z,19.68
2018-04-28T10:51:58.301Z,19.65
2018-04-28T10:54:25.674Z,19.58
2018-04-28T10:56:53.064Z,19.30
2018-04-28T10:59:20.438Z,18.95
2018-04-28T11:01:47.830Z,18.65
2018-04-28T11:04:15.418Z,18.44
2018-04-28T11:06:42.818Z,18.33
2018-04-28T11:09:10.197Z,18.42
2018-04-28T11:11:37.580Z,18.53
2018-04-28T11:14:04.953Z,18.88
2018-04-28T11:16:32.330Z,18.96
2018-04-28T11:18:59.716Z,19.11
2018-04-28T11:21:27.096Z,19.20
2018-04-28T11:23:54.483Z,19.50
2018-04-28T11:26:21.887Z,19.31
2018-04-28T11:28:49.274Z,19.75
2018-04-28T11:31:16.655Z,19.94
2018-04-28T11:33:44.040Z,20.57
2018-04-28T11:36:11.419Z,20.80
2018-04-28T11:38:38.806Z,20.72
2018-04-28T11:41:06.188Z,20.91
2018-04-28T11:43:33.587Z,20.48
2018-04-28T11:46:00.967Z,20.80
2018-04-28T11:48:28.339Z,20.75
2018-04-28T11:50:55.722Z,20.47
2018-04-28T11:53:23.158Z,20.56
2018-04-28T11:55:50.503Z,20.61
2018-04-28T11:58:17.882Z,20.33
2018-04-28T12:00:45.266Z,20.46
2018-04-28T12:03:12.664Z,21.26
2018-04-28T12:05:40.055Z,22.19
2018-04-28T12:08:07.427Z,22.61
2018-04-28T12:10:34.815Z,23.26
2018-04-28T12:13:02.236Z,22.86
2018-04-28T12:15:29.626Z,22.44
2018-04-28T12:17:57.089Z,22.40
2018-04-28T12:20:24.485Z,22.69
2018-04-28T12:22:51.878Z,22.57
2018-04-28T12:25:19.250Z,22.30
2018-04-28T12:27:46.655Z,22.26
2018-04-28T12:30:14.043Z,22.59
2018-04-28T12:32:41.471Z,22.35
2018-04-28T12:35:08.842Z,21.69
2018-04-28T12:37:36.230Z,21.57
2018-04-28T12:40:03.607Z,21.38
2018-04-28T12:42:30.987Z,21.43
2018-04-28T12:44:58.384Z,21.49
2018-04-28T12:47:25.759Z,21.64
2018-04-28T12:49:53.274Z,21.76
2018-04-28T12:52:20.650Z,21.67
2018-04-28T12:54:48.041Z,21.55
2018-04-28T12:57:15.418Z,21.31
2018-04-28T12:59:42.795Z,21.26
2018-04-28T13:02:10.175Z,21.06
2018-04-28T13:04:37.820Z,20.75
2018-04-28T13:07:05.279Z,20.76
2018-04-28T13:09:32.693Z,20.70
2018-04-28T13:12:00.065Z,20.60
2018-04-28T13:14:27.438Z,20.54
2018-04-28T13:16:54.814Z,20.53
2018-04-28T13:19:22.198Z,20.51
2018-04-28T13:21:49.575Z,20.28
2018-04-28T13:24:16.943Z,20.20
2018-04-28T13:26:44.332Z,20.06
2018-04-28T13:29:11.725Z,20.23
2018-04-28T13:31:39.112Z,20.59
2018-04-28T13:34:06.487Z,20.76
2018-04-28T13:36:33.868Z,21.00
2018-04-28T13:39:01.253Z,21.02
2018-04-28T13:41:28.635Z,20.91
2018-04-28T13:43:56.026Z,20.57
2018-04-28T13:46:23.398Z,20.46
2018-04-28T13:48:50.835Z,20.59
2018-04-28T13:51:18.215Z,20.88
2018-04-28T13:53:45.605Z,21.09
2018-04-28T13:56:12.982Z,21.02
2018-04-28T13:58:40.363Z,21.09
2018-04-28T14:01:07.746Z,21.12
2018-04-28T14:03:35.135Z,21.24
2018-04-28T14:06:02.523Z,21.44
2018-04-28T14:08:29.907Z,21.64
2018-04-28T14:10:57.299Z,21.76
2018-04-28T14:13:24.708Z,21.87
2018-04-28T14:15:52.227Z,21.93
2018-04-28T14:18:19.607Z,21.79
2018-04-28T14:20:47.019Z,21.71
2018-04-28T14:23:14.407Z,21.80
2018-04-28T14:25:41.798Z,21.58
2018-04-28T14:28:09.186Z,21.29
2018-04-28T14:30:36.651Z,21.17
2018-04-28T14:33:04.099Z,21.18
2018-04-28T14:35:31.483Z,21.29
2018-04-28T14:37:58.866Z,21.31
2018-04-28T14:40:26.247Z,21.04
2018-04-28T14:42:53.638Z,20.84
2018-04-28T14:45:21.024Z,21.06
2018-04-28T14:47:48.458Z,21.03
2018-04-28T14:50:15.799Z,20.82
2018-04-28T14:52:43.230Z,20.81
2018-04-28T14:55:10.589Z,20.87
2018-04-28T14:57:38.394Z,20.82
2018-04-28T15:00:05.791Z,21.00
2018-04-28T15:02:33.195Z,21.16
2018-04-28T15:05:00.766Z,21.34
2018-04-28T15:07:28.159Z,21.47
2018-04-28T15:09:55.615Z,21.09
2018-04-28T15:12:22.943Z,21.04
2018-04-28T15:14:50.322Z,20.73
2018-04-28T15:17:18.055Z,20.71
2018-04-28T15:19:45.518Z,20.57
2018-04-28T15:22:12.902Z,20.55
2018-04-28T15:24:40.290Z,20.56
2018-04-28T15:27:07.696Z,20.62
2018-04-28T15:29:35.076Z,20.61
2018-04-28T15:32:02.476Z,20.63
2018-04-28T15:34:29.869Z,20.46
2018-04-28T15:36:57.337Z,20.38
2018-04-28T15:39:24.702Z,20.33
2018-04-28T15:41:52.191Z,20.41
2018-04-28T15:44:19.584Z,20.41
2018-04-28T15:46:46.966Z,20.31
2018-04-28T15:49:14.356Z,20.13
2018-04-28T15:51:41.735Z,19.94
2018-04-28T15:54:09.179Z,19.84
2018-04-28T15:56:36.559Z,19.78
2018-04-28T15:59:03.942Z,19.83
2018-04-28T16:01:31.326Z,19.65
2018-04-28T16:03:58.723Z,19.40
2018-04-28T16:06:26.098Z,19.52
2018-04-28T16:08:53.490Z,19.49
2018-04-28T16:11:20.874Z,19.55
2018-04-28T16:13:48.258Z,19.53
2018-04-28T16:16:15.642Z,19.63
2018-04-28T16:18:43.018Z,19.53
2018-04-28T16:21:10.398Z,19.54
2018-04-28T16:23:37.802Z,19.59
2018-04-28T16:26:05.182Z,19.45
2018-04-28T16:28:32.583Z,19.32
2018-04-28T16:30:59.977Z,19.38
2018-04-28T16:33:27.346Z,19.45
2018-04-28T16:35:54.735Z,19.32
2018-04-28T16:38:22.115Z,19.45
2018-04-28T16:40:49.502Z,19.48
2018-04-28T16:43:16.978Z,19.30
2018-04-28T16:45:44.394Z,19.32
2018-04-28T16:48:11.771Z,19.33
2018-04-28T16:50:39.172Z,19.19
2018-04-28T16:53:06.554Z,19.23
2018-04-28T16:55:33.919Z,19.21
2018-04-28T16:58:01.306Z,19.19
2018-04-28T17:00:28.687Z,19.20
2018-04-28T17:02:56.071Z,19.16
2018-04-28T17:05:23.488Z,19.15
2018-04-28T17:07:50.902Z,19.14
2018-04-28T17:10:18.287Z,19.13
2018-04-28T17:12:45.702Z,19.16
2018-04-28T17:15:13.090Z,19.14
2018-04-28T17:17:52.334Z,19.11
2018-04-28T17:20:19.699Z,19.10
2018-04-28T17:22:47.123Z,19.06
2018-04-28T17:25:14.516Z,18.91
2018-04-28T17:27:41.906Z,18.61
2018-04-28T17:30:09.287Z,18.51
2018-04-28T17:32:36.675Z,18.42
2018-04-28T17:35:04.070Z,18.37
2018-04-28T17:37:31.451Z,18.27
2018-04-28T17:39:58.847Z,18.21
2018-04-28T17:42:26.225Z,18.09
2018-04-28T17:44:53.607Z,18.04
2018-04-28T17:47:20.985Z,18.05
2018-04-28T17:49:48.375Z,17.97
2018-04-28T17:52:15.751Z,17.97
2018-04-28T17:54:43.135Z,17.93
2018-04-28T17:57:10.591Z,17.92
2018-04-28T17:59:37.945Z,17.95
2018-04-28T18:02:05.315Z,17.92
2018-04-28T18:04:32.710Z,17.92
2018-04-28T18:07:00.175Z,17.91
2018-04-28T18:09:27.615Z,17.92
2018-04-28T18:11:55.148Z,17.88
2018-04-28T18:14:22.803Z,17.88
2018-04-28T18:16:50.299Z,17.92
2018-04-28T18:19:17.835Z,17.88
2018-04-28T18:21:45.442Z,17.83
2018-04-28T18:24:12.858Z,17.83
2018-04-28T18:26:40.267Z,17.74
2018-04-28T18:29:07.672Z,17.66
2018-04-28T18:31:35.087Z,17.53
2018-04-28T18:34:02.467Z,17.54
2018-04-28T18:36:29.863Z,17.47
2018-04-28T18:38:57.258Z,17.42
2018-04-28T18:41:24.655Z,17.41
2018-04-28T18:43:52.084Z,17.34
2018-04-28T18:46:19.535Z,17.26
2018-04-28T18:48:46.886Z,17.27
2018-04-28T18:51:14.557Z,17.27
2018-04-28T18:53:41.928Z,17.28
2018-04-28T18:56:09.348Z,17.19
2018-04-28T18:58:36.755Z,17.19
2018-04-28T19:01:04.193Z,17.07
2018-04-28T19:03:31.592Z,17.09
2018-04-28T19:05:58.983Z,17.10
2018-04-28T19:08:26.375Z,16.99
2018-04-28T19:10:53.760Z,16.84
2018-04-28T19:13:21.150Z,16.91
2018-04-28T19:15:48.551Z,16.93
2018-04-28T19:18:15.963Z,16.94
2018-04-28T19:20:43.347Z,16.97
2018-04-28T19:23:10.731Z,16.94
2018-04-28T19:25:38.115Z,16.92
2018-04-28T19:28:05.499Z,16.86
2018-04-28T19:30:32.897Z,16.77
2018-04-28T19:33:00.290Z,16.79
2018-04-28T19:35:27.719Z,16.73
2018-04-28T19:37:55.090Z,16.68
2018-04-28T19:40:22.480Z,16.66
2018-04-28T19:42:49.876Z,16.65
2018-04-28T19:45:17.282Z,16.62
2018-04-28T19:47:44.683Z,16.60
2018-04-28T19:50:12.074Z,16.64
2018-04-28T19:52:39.463Z,16.60
2018-04-28T19:55:06.859Z,16.56
2018-04-28T19:57:34.276Z,16.51
2018-04-28T20:00:01.683Z,16.48
2018-04-28T20:02:29.060Z,16.49
2018-04-28T20:04:56.454Z,16.46
2018-04-28T20:07:23.839Z,16.44
2018-04-28T20:09:51.254Z,16.40
2018-04-28T20:12:18.649Z,16.39
2018-04-28T20:14:46.031Z,16.38
2018-04-28T20:17:13.419Z,16.33
2018-04-28T20:19:40.806Z,16.29
2018-04-28T20:22:19.974Z,16.27
2018-04-28T20:24:59.059Z,16.21
2018-04-28T20:27:26.455Z,16.15
2018-04-28T20:29:53.839Z,16.15
2018-04-28T20:32:21.375Z,16.11
2018-04-28T20:34:48.762Z,16.09
2018-04-28T20:37:16.150Z,16.09
2018-04-28T20:39:43.541Z,16.09
2018-04-28T20:42:10.939Z,16.13
2018-04-28T20:44:38.327Z,16.12
2018-04-28T20:47:05.723Z,16.12
2018-04-28T20:49:33.107Z,16.09
2018-04-28T20:52:00.955Z,16.07
2018-04-28T20:54:28.338Z,16.06
2018-04-28T20:56:55.738Z,16.03
2018-04-28T20:59:23.126Z,15.99
2018-04-28T21:01:50.519Z,15.98
2018-04-28T21:04:18.007Z,15.96
2018-04-28T21:06:45.398Z,15.95
2018-04-28T21:09:12.787Z,15.93
2018-04-28T21:11:40.167Z,15.88
2018-04-28T21:14:07.558Z,15.85
2018-04-28T21:16:34.977Z,15.86
2018-04-28T21:19:02.431Z,15.83
2018-04-28T21:21:29.746Z,15.78
2018-04-28T21:23:57.177Z,15.81
2018-04-28T21:26:24.555Z,15.79
2018-04-28T21:28:51.946Z,15.71
2018-04-28T21:31:19.408Z,15.70
2018-04-28T21:33:46.722Z,15.62
2018-04-28T21:36:14.106Z,15.59
2018-04-28T21:38:41.501Z,15.61
2018-04-28T21:41:08.890Z,15.60
2018-04-28T21:43:36.282Z,15.62
2018-04-28T21:46:03.671Z,15.60
2018-04-28T21:48:31.073Z,15.59
2018-04-28T21:50:58.447Z,15.58
2018-04-28T21:53:25.831Z,15.53
2018-04-28T21:55:53.214Z,15.59
2018-04-28T21:58:20.606Z,15.56
2018-04-28T22:00:47.993Z,15.46
2018-04-28T22:03:15.431Z,15.50
2018-04-28T22:05:43.010Z,15.48
2018-04-28T22:08:10.394Z,15.49
2018-04-28T22:10:37.783Z,15.46
2018-04-28T22:13:05.159Z,15.45
2018-04-28T22:15:32.546Z,15.44
2018-04-28T22:17:59.942Z,15.42
2018-04-28T22:20:27.332Z,15.37
2018-04-28T22:22:54.718Z,15.30
2018-04-28T22:25:22.107Z,15.18
2018-04-28T22:27:49.499Z,15.08
2018-04-28T22:30:16.877Z,14.95
2018-04-28T22:32:44.263Z,14.82
2018-04-28T22:35:11.650Z,14.71
2018-04-28T22:37:39.036Z,14.55
2018-04-28T22:40:06.415Z,14.51
2018-04-28T22:42:33.802Z,14.40
2018-04-28T22:45:01.183Z,14.35
2018-04-28T22:47:28.571Z,14.24
2018-04-28T22:49:55.958Z,14.18
2018-04-28T22:52:23.409Z,14.10
2018-04-28T22:54:50.761Z,14.06
2018-04-28T22:57:18.150Z,13.96
2018-04-28T22:59:45.569Z,13.92
2018-04-28T23:02:12.928Z,13.84
2018-04-28T23:04:40.310Z,13.76
2018-04-28T23:07:07.700Z,13.69
2018-04-28T23:09:35.090Z,13.67
2018-04-28T23:12:02.738Z,13.63
2018-04-28T23:14:30.118Z,13.57
2018-04-28T23:16:57.494Z,13.53
2018-04-28T23:19:24.895Z,13.50
2018-04-28T23:21:52.282Z,13.44
2018-04-28T23:24:19.670Z,13.40
2018-04-28T23:26:47.050Z,13.37
2018-04-28T23:29:14.443Z,13.36
2018-04-28T23:31:41.826Z,13.30
2018-04-28T23:34:09.215Z,13.24
2018-04-28T23:36:36.600Z,13.20
2018-04-28T23:39:03.983Z,13.27
2018-04-28T23:41:31.371Z,13.29
2018-04-28T23:43:58.759Z,13.35
2018-04-28T23:46:26.147Z,13.41
2018-04-28T23:48:53.627Z,13.43
2018-04-28T23:51:21.016Z,13.44
2018-04-28T23:53:48.399Z,13.44
2018-04-28T23:56:15.791Z,13.41
2018-04-28T23:58:43.175Z,13.41
